Time;durP1;ratioP1;P1;durP2;ratioP2;P2;SDS_P1;SDS_P2;PMS_P1;PMS_P2;Temp;Humidity;BMP_temperature;BMP_pressure;BME280_temperature;BME280_humidity;BME280_pressure;Samples;Min_cycle;Max_cycle;Signal;HPM_P1;HPM_P2
2022/05/18 00:00:51;;;;;;;3.40;2.30;;;17.00;99.90;;;;;;5078857;28;20046;-72
2022/05/18 00:03:21;;;;;;;5.28;2.30;;;16.90;99.90;;;;;;5097538;28;20054;-72
2022/05/18 00:05:47;;;;;;;;;;;16.90;99.90;;;;;;5096754;28;20040;-71
2022/05/18 00:08:14;;;;;;;3.33;2.10;;;16.90;99.90;;;;;;5096024;28;19916;-72
2022/05/18 00:10:44;;;;;;;4.30;2.25;;;16.80;99.90;;;;;;5095556;28;20043;-71
2022/05/18 00:13:11;;;;;;;;;;;16.70;99.90;;;;;;5078745;28;20352;-71
2022/05/18 00:15:38;;;;;;;3.83;2.15;;;16.60;99.90;;;;;;5094908;28;19919;-71
2022/05/18 00:18:05;;;;;;;5.45;2.00;;;16.60;99.90;;;;;;5078907;28;20047;-71
2022/05/18 00:20:32;;;;;;;5.13;2.58;;;16.60;99.90;;;;;;5078253;28;20046;-71
2022/05/18 00:23:01;;;;;;;5.50;2.30;;;16.50;99.90;;;;;;5095273;28;20051;-71
2022/05/18 00:25:30;;;;;;;5.07;2.30;;;16.40;99.90;;;;;;5096724;28;20044;-71
2022/05/18 00:27:56;;;;;;;3.17;2.45;;;16.30;99.90;;;;;;5095236;28;20043;-71
2022/05/18 00:30:24;;;;;;;3.28;1.90;;;16.30;99.90;;;;;;5096348;28;20055;-72
2022/05/18 00:32:51;;;;;;;7.32;3.20;;;16.20;99.90;;;;;;5094387;28;20051;-71
2022/05/18 00:35:18;;;;;;;5.00;2.13;;;16.10;99.90;;;;;;5096248;28;20387;-72
2022/05/18 00:37:45;;;;;;;7.97;2.90;;;16.10;99.90;;;;;;5094936;28;20036;-72
2022/05/18 00:40:13;;;;;;;7.93;3.10;;;16.10;99.90;;;;;;5094229;28;20494;-71
2022/05/18 00:42:40;;;;;;;6.63;2.80;;;16.10;99.90;;;;;;5077869;28;20059;-71
2022/05/18 00:45:08;;;;;;;5.72;2.25;;;16.00;99.90;;;;;;5095306;28;20036;-71
2022/05/18 00:47:35;;;;;;;3.88;2.40;;;16.00;99.90;;;;;;5095518;28;20059;-71
2022/05/18 00:50:14;;;;;;;4.45;2.90;;;15.90;99.90;;;;;;5094270;28;20055;-71
2022/05/18 00:52:45;;;;;;;6.05;3.03;;;15.90;99.90;;;;;;5094993;28;20040;-71
2022/05/18 00:55:14;;;;;;;4.03;2.20;;;15.80;99.90;;;;;;5077671;28;20406;-71
2022/05/18 00:57:46;;;;;;;2.63;1.73;;;15.80;99.90;;;;;;5095289;28;20067;-71
2022/05/18 01:00:14;;;;;;;4.63;2.10;;;15.70;99.90;;;;;;5078075;28;20371;-72
2022/05/18 01:02:44;;;;;;;4.90;1.77;;;15.70;99.90;;;;;;5095226;28;20383;-72
2022/05/18 01:05:12;;;;;;;3.35;2.20;;;15.60;99.90;;;;;;5078068;28;20066;-72
2022/05/18 01:07:43;;;;;;;4.47;1.70;;;15.70;99.90;;;;;;5076895;28;20044;-72
2022/05/18 01:10:10;;;;;;;5.65;2.20;;;15.60;99.90;;;;;;5094232;28;20463;-72
2022/05/18 01:12:37;;;;;;;3.60;1.83;;;15.60;99.90;;;;;;5095107;28;20040;-71
2022/05/18 01:15:11;;;;;;;5.95;1.85;;;15.60;99.90;;;;;;5095275;28;20044;-71
2022/05/18 01:17:40;;;;;;;3.25;1.70;;;15.50;99.90;;;;;;5095149;28;20048;-71
2022/05/18 01:20:09;;;;;;;2.83;1.80;;;15.50;99.90;;;;;;5077612;28;20036;-71
2022/05/18 01:23:08;;;;;;;4.35;2.20;;;15.50;99.90;;;;;;5093647;28;20044;-71
2022/05/18 01:25:56;;;;;;;5.32;2.33;;;15.40;99.90;;;;;;5095421;28;20036;-71
2022/05/18 01:28:24;;;;;;;6.50;2.43;;;15.40;99.90;;;;;;5094470;28;20098;-71
2022/05/18 01:30:51;;;;;;;3.85;1.70;;;15.30;99.90;;;;;;5093198;28;20040;-71
2022/05/18 01:33:18;;;;;;;3.22;2.10;;;15.20;99.90;;;;;;5093113;28;20044;-71
2022/05/18 01:35:46;;;;;;;3.95;2.17;;;15.20;99.90;;;;;;5076846;28;20048;-71
2022/05/18 01:38:13;;;;;;;4.05;2.10;;;15.10;99.90;;;;;;5093866;28;20047;-71
2022/05/18 01:40:46;;;;;;;5.90;2.72;;;15.10;99.90;;;;;;5077494;28;20040;-71
2022/05/18 01:43:31;;;;;;;2.97;1.83;;;15.00;99.90;;;;;;5094462;28;20051;-71
2022/05/18 01:46:00;;;;;;;8.43;2.97;;;15.00;99.90;;;;;;5094156;28;20058;-71
2022/05/18 01:48:32;;;;;;;5.60;2.63;;;14.90;99.90;;;;;;5092341;28;20042;-71
2022/05/18 01:51:00;;;;;;;4.78;2.35;;;14.90;99.90;;;;;;5094002;28;20272;-71
2022/05/18 01:53:27;;;;;;;5.18;2.60;;;14.80;99.90;;;;;;5093662;28;20040;-71
2022/05/18 01:55:54;;;;;;;4.88;2.20;;;14.80;99.90;;;;;;5060589;28;20051;-71
2022/05/18 01:58:21;;;;;;;5.68;2.38;;;14.70;99.90;;;;;;5094858;28;20044;-71
2022/05/18 02:00:48;;;;;;;3.97;2.00;;;14.70;99.90;;;;;;5092598;28;20051;-72
2022/05/18 02:03:15;;;;;;;2.33;1.50;;;14.70;99.90;;;;;;5075898;28;20554;-72
2022/05/18 02:05:42;;;;;;;3.22;1.63;;;14.70;99.90;;;;;;5094129;28;20043;-71
2022/05/18 02:08:10;;;;;;;4.68;1.70;;;14.60;99.90;;;;;;5076971;28;20040;-71
2022/05/18 02:10:37;;;;;;;7.47;2.05;;;14.60;99.90;;;;;;5094041;28;20040;-72
2022/05/18 02:13:04;;;;;;;7.97;2.28;;;14.60;99.90;;;;;;5075802;28;20048;-72
2022/05/18 02:15:31;;;;;;;4.18;2.10;;;14.50;99.90;;;;;;5092908;28;20047;-71
2022/05/18 02:17:58;;;;;;;3.42;1.80;;;14.50;99.90;;;;;;5092336;28;20040;-71
2022/05/18 02:20:24;;;;;;;2.72;1.48;;;14.50;99.90;;;;;;5092502;28;20040;-71
2022/05/18 02:22:51;;;;;;;2.80;1.90;;;14.50;99.90;;;;;;5092339;28;20040;-71
2022/05/18 02:25:21;;;;;;;2.63;1.65;;;14.40;99.90;;;;;;5093819;28;20044;-71
2022/05/18 02:27:50;;;;;;;4.00;1.40;;;14.40;99.90;;;;;;5093440;28;20086;-71
2022/05/18 02:30:17;;;;;;;2.22;1.50;;;14.40;99.90;;;;;;5092569;28;20048;-72
2022/05/18 02:32:44;;;;;;;3.63;1.80;;;14.30;99.90;;;;;;5094281;28;20456;-71
2022/05/18 02:35:11;;;;;;;3.55;1.58;;;14.30;99.90;;;;;;5093756;28;20040;-71
2022/05/18 02:37:38;;;;;;;2.92;1.50;;;14.30;99.90;;;;;;5093653;28;20040;-71
2022/05/18 02:40:06;;;;;;;4.10;1.38;;;14.30;99.90;;;;;;5092098;28;20044;-71
2022/05/18 02:42:33;;;;;;;4.15;1.70;;;14.20;99.90;;;;;;5093670;28;20050;-71
2022/05/18 02:45:00;;;;;;;5.38;1.70;;;14.20;99.90;;;;;;5092543;28;20048;-71
2022/05/18 02:47:27;;;;;;;3.10;1.40;;;14.10;99.90;;;;;;5092434;28;20054;-71
2022/05/18 02:49:54;;;;;;;5.15;1.40;;;14.10;99.90;;;;;;5092164;28;20040;-71
2022/05/18 02:52:21;;;;;;;2.80;1.40;;;14.10;99.90;;;;;;5092299;28;20043;-71
2022/05/18 02:57:33;;;;;;;3.17;1.60;;;14.10;99.90;;;;;;5092948;28;20055;-71
2022/05/18 03:00:00;;;;;;;4.43;1.50;;;14.00;99.90;;;;;;5093581;28;20048;-71
2022/05/18 03:02:27;;;;;;;3.47;1.50;;;14.00;99.90;;;;;;5096365;28;20044;-71
2022/05/18 03:04:54;;;;;;;2.47;1.67;;;13.90;99.90;;;;;;5098310;28;20422;-72
2022/05/18 03:07:21;;;;;;;3.38;1.40;;;13.90;99.90;;;;;;5096295;28;20069;-71
2022/05/18 03:09:48;;;;;;;4.88;1.67;;;13.80;99.90;;;;;;5096453;28;20044;-71
2022/05/18 03:12:14;;;;;;;2.25;1.25;;;13.80;99.90;;;;;;5097456;28;20375;-71
2022/05/18 03:14:41;;;;;;;3.35;1.52;;;13.80;99.90;;;;;;5097431;28;20345;-71
2022/05/18 03:17:08;;;;;;;2.63;1.20;;;13.80;99.90;;;;;;5097769;28;20043;-70
2022/05/18 03:19:35;;;;;;;3.75;2.33;;;13.70;99.90;;;;;;5098070;28;20059;-71
2022/05/18 03:24:49;;;;;;;6.75;2.10;;;13.70;99.90;;;;;;5097763;28;20044;-71
2022/05/18 03:27:16;;;;;;;4.03;1.40;;;13.60;99.90;;;;;;5097637;28;20052;-71
2022/05/18 03:29:42;;;;;;;2.92;1.23;;;13.60;99.90;;;;;;5097244;28;20051;-71
2022/05/18 03:32:09;;;;;;;4.43;1.52;;;13.60;99.90;;;;;;5097557;28;20468;-71
2022/05/18 03:34:36;;;;;;;3.20;1.50;;;13.50;99.90;;;;;;5096727;28;20130;-71
2022/05/18 03:37:03;;;;;;;3.05;1.95;;;13.50;99.90;;;;;;5096175;28;20460;-71
2022/05/18 03:39:30;;;;;;;3.05;1.35;;;13.50;99.90;;;;;;5095765;28;20055;-71
2022/05/18 03:41:57;;;;;;;3.95;1.90;;;13.40;99.90;;;;;;5097625;28;20040;-71
2022/05/18 03:44:24;;;;;;;3.45;1.60;;;13.40;99.90;;;;;;5097610;28;20043;-71
2022/05/18 03:46:51;;;;;;;4.05;1.85;;;13.40;99.90;;;;;;5096544;28;20036;-71
2022/05/18 03:49:18;;;;;;;3.92;1.40;;;13.30;99.90;;;;;;5096687;28;20044;-71
2022/05/18 03:51:47;;;;;;;4.40;1.40;;;13.30;99.90;;;;;;5095085;28;20040;-71
2022/05/18 03:54:14;;;;;;;3.80;1.77;;;13.30;99.90;;;;;;5096232;28;20040;-71
2022/05/18 03:56:41;;;;;;;4.20;1.85;;;13.20;99.90;;;;;;5096169;28;20040;-71
2022/05/18 03:59:07;;;;;;;2.83;1.48;;;13.20;99.90;;;;;;5078307;28;20048;-71
2022/05/18 04:01:35;;;;;;;2.53;1.20;;;13.10;99.90;;;;;;5096978;28;20118;-71
2022/05/18 04:04:02;;;;;;;3.42;1.75;;;13.10;99.90;;;;;;5096031;28;20075;-71
2022/05/18 04:06:29;;;;;;;4.72;1.58;;;13.00;99.90;;;;;;5096663;28;20044;-72
2022/05/18 04:08:56;;;;;;;2.88;1.83;;;13.00;99.90;;;;;;5061988;28;20055;-71
2022/05/18 04:11:23;;;;;;;6.07;1.60;;;12.90;99.90;;;;;;5094330;28;20467;-71
2022/05/18 04:13:50;;;;;;;3.53;1.90;;;12.90;99.90;;;;;;5094660;28;20059;-71
2022/05/18 04:16:17;;;;;;;4.75;1.67;;;12.90;99.90;;;;;;5096721;28;20437;-71
2022/05/18 04:18:44;;;;;;;4.35;1.60;;;12.90;99.90;;;;;;5094856;28;20051;-71
2022/05/18 04:21:11;;;;;;;6.32;1.83;;;12.90;99.90;;;;;;5094585;28;20044;-71
2022/05/18 04:23:39;;;;;;;3.38;1.70;;;12.80;99.90;;;;;;5094845;28;20043;-71
2022/05/18 04:26:09;;;;;;;4.68;1.90;;;12.80;99.90;;;;;;5095275;28;20101;-71
2022/05/18 04:28:36;;;;;;;3.70;1.60;;;12.80;99.90;;;;;;5096523;28;20055;-71
2022/05/18 04:31:03;;;;;;;4.55;1.52;;;12.80;99.90;;;;;;5095249;28;20040;-71
2022/05/18 04:33:30;;;;;;;3.55;1.67;;;12.70;99.90;;;;;;5094616;28;20048;-71
2022/05/18 04:36:01;;;;;;;6.93;2.42;;;12.70;99.90;;;;;;5094623;28;20051;-71
2022/05/18 04:38:29;;;;;;;3.53;1.70;;;12.70;99.90;;;;;;5095789;28;20040;-71
2022/05/18 04:40:56;;;;;;;4.93;1.52;;;12.70;99.90;;;;;;5094186;28;20047;-71
2022/05/18 04:43:24;;;;;;;4.25;1.50;;;12.70;99.90;;;;;;5094149;28;20047;-71
2022/05/18 04:45:51;;;;;;;5.85;1.85;;;12.80;99.90;;;;;;5096054;28;20044;-71
2022/05/18 04:48:20;;;;;;;2.80;1.50;;;12.80;99.90;;;;;;5094600;28;20426;-71
2022/05/18 04:50:49;;;;;;;2.95;1.20;;;12.90;99.90;;;;;;5094060;28;20040;-71
2022/05/18 04:53:16;;;;;;;;;;;13.10;99.90;;;;;;5095561;28;20487;-71
2022/05/18 04:55:43;;;;;;;4.65;1.70;;;13.60;99.90;;;;;;5095456;28;20397;-71
2022/05/18 04:58:10;;;;;;;4.88;1.42;;;14.00;99.90;;;;;;5095281;28;20055;-71
2022/05/18 05:00:37;;;;;;;3.08;1.48;;;14.50;99.90;;;;;;5094988;28;20043;-72
2022/05/18 05:03:04;;;;;;;4.00;1.55;;;15.00;99.90;;;;;;5095748;28;20052;-72
2022/05/18 05:05:31;;;;;;;5.55;1.83;;;15.50;99.90;;;;;;5094774;28;20070;-72
2022/05/18 05:07:58;;;;;;;3.10;1.50;;;16.00;99.90;;;;;;5094843;28;20468;-71
2022/05/18 05:10:25;;;;;;;4.03;1.58;;;16.30;99.90;;;;;;5094822;28;20048;-71
2022/05/18 05:12:52;;;;;;;5.05;1.70;;;16.70;99.90;;;;;;5094708;28;20043;-71
2022/05/18 05:15:20;;;;;;;3.17;1.40;;;17.10;99.90;;;;;;5094307;28;20059;-71
2022/05/18 05:17:47;;;;;;;3.55;1.13;;;17.50;99.90;;;;;;5093272;28;20443;-71
2022/05/18 05:20:14;;;;;;;3.17;1.45;;;17.80;99.90;;;;;;5094553;28;20475;-71
2022/05/18 05:22:41;;;;;;;2.30;1.67;;;18.10;99.90;;;;;;5076593;28;20048;-71
2022/05/18 05:25:08;;;;;;;2.80;1.30;;;18.30;99.90;;;;;;5093220;28;20498;-71
2022/05/18 05:27:35;;;;;;;6.03;1.48;;;18.50;99.90;;;;;;5094273;28;20154;-72
2022/05/18 05:30:03;;;;;;;3.58;1.90;;;18.70;99.90;;;;;;5095079;28;20044;-72
2022/05/18 05:32:30;;;;;;;5.50;2.58;;;18.90;99.90;;;;;;5095140;28;20051;-72
2022/05/18 05:34:57;;;;;;;3.13;1.38;;;19.10;99.90;;;;;;5095052;28;20044;-72
2022/05/18 05:37:24;;;;;;;3.70;1.48;;;19.20;99.90;;;;;;5093764;28;20040;-72
2022/05/18 05:39:51;;;;;;;3.85;1.30;;;19.30;99.90;;;;;;5094414;28;20044;-72
2022/05/18 05:42:18;;;;;;;2.85;1.50;;;19.30;99.90;;;;;;5093288;28;20036;-69
2022/05/18 05:44:45;;;;;;;3.90;1.45;;;19.30;99.90;;;;;;5095033;28;20047;-69
2022/05/18 05:47:12;;;;;;;39.88;35.58;;;19.30;99.90;;;;;;5094101;28;20040;-69
2022/05/18 05:49:39;;;;;;;18.10;16.13;;;19.30;99.90;;;;;;5094001;28;20127;-75
2022/05/18 05:52:07;;;;;;;7.57;5.00;;;19.30;99.90;;;;;;5092882;28;20039;-69
2022/05/18 05:54:34;;;;;;;4.05;2.22;;;19.20;99.90;;;;;;5093993;28;20051;-65
2022/05/18 05:57:04;;;;;;;4.32;1.67;;;19.10;99.90;;;;;;5094731;28;20040;-74
2022/05/18 05:59:32;;;;;;;4.00;2.15;;;19.00;99.90;;;;;;5092676;28;20134;-65
2022/05/18 06:02:02;;;;;;;4.05;1.85;;;18.90;99.90;;;;;;5095026;28;20317;-63
2022/05/18 06:04:33;;;;;;;3.42;1.52;;;18.70;99.90;;;;;;5092670;28;20039;-62
2022/05/18 06:07:00;;;;;;;13.60;9.85;;;18.50;99.90;;;;;;5092675;28;20512;-78
2022/05/18 06:09:27;;;;;;;41.45;34.58;;;18.40;99.90;;;;;;5093282;28;20047;-77
2022/05/18 06:11:54;;;;;;;7.90;4.88;;;18.40;99.90;;;;;;5093840;28;20044;-79
2022/05/18 06:14:21;;;;;;;4.70;2.28;;;18.20;99.90;;;;;;5092692;28;20066;-79
2022/05/18 06:16:48;;;;;;;6.43;2.05;;;18.10;99.90;;;;;;5076267;28;20043;-77
2022/05/18 06:19:15;;;;;;;3.88;1.60;;;17.90;99.90;;;;;;5093481;28;20040;-77
2022/05/18 06:21:42;;;;;;;4.28;2.20;;;17.70;99.90;;;;;;5075997;28;20051;-77
2022/05/18 06:24:10;;;;;;;6.50;2.20;;;17.60;99.90;;;;;;5093707;28;20127;-77
2022/05/18 06:26:36;;;;;;;6.07;2.03;;;17.60;99.90;;;;;;5092488;28;20044;-76
2022/05/18 06:29:04;;;;;;;4.95;2.03;;;17.50;99.90;;;;;;5092538;28;20059;-76
2022/05/18 06:31:31;;;;;;;4.80;1.73;;;17.60;99.90;;;;;;5093444;28;20040;-77
2022/05/18 06:34:05;;;;;;;5.75;1.95;;;17.60;99.90;;;;;;5094043;28;20043;-73
2022/05/18 06:36:34;;;;;;;6.18;2.17;;;17.60;99.90;;;;;;5093714;28;20044;-71
2022/05/18 06:39:01;;;;;;;4.68;1.85;;;17.60;99.90;;;;;;5093253;28;20054;-71
2022/05/18 06:41:33;;;;;;;5.05;1.85;;;17.70;99.90;;;;;;5092715;28;20376;-71
2022/05/18 06:44:02;;;;;;;6.03;1.67;;;17.70;99.90;;;;;;5075515;28;20040;-72
2022/05/18 06:46:32;;;;;;;5.10;2.17;;;17.70;99.90;;;;;;5075612;28;20471;-73
2022/05/18 06:48:59;;;;;;;6.07;2.50;;;17.70;99.90;;;;;;5075335;28;20040;-72
2022/05/18 06:51:29;;;;;;;5.70;2.10;;;17.70;99.90;;;;;;5093146;28;20047;-73
2022/05/18 06:53:57;;;;;;;8.15;3.25;;;17.90;99.90;;;;;;5092244;28;20040;-73
2022/05/18 06:56:27;;;;;;;6.20;2.30;;;17.90;99.90;;;;;;5091941;28;20040;-73
2022/05/18 06:58:54;;;;;;;7.80;2.50;;;18.00;99.90;;;;;;5092696;28;20063;-72
2022/05/18 07:01:21;;;;;;;6.40;2.50;;;18.10;99.90;;;;;;5092002;28;20054;-70
2022/05/18 07:03:48;;;;;;;6.50;2.47;;;18.20;99.90;;;;;;5075455;28;20044;-70
2022/05/18 07:06:16;;;;;;;7.28;2.20;;;18.30;99.90;;;;;;5092654;28;20040;-70
2022/05/18 07:08:43;;;;;;;5.72;2.20;;;18.30;99.90;;;;;;5059644;28;20135;-71
2022/05/18 07:11:10;;;;;;;3.92;2.03;;;18.40;99.90;;;;;;5092147;28;20036;-69
2022/05/18 07:13:38;;;;;;;5.15;2.35;;;18.60;99.90;;;;;;5093838;28;20043;-71
2022/05/18 07:16:07;;;;;;;6.22;2.80;;;18.70;99.90;;;;;;5076807;28;20123;-75
2022/05/18 07:18:34;;;;;;;56.75;47.70;;;18.80;99.90;;;;;;5092028;28;20127;-71
2022/05/18 07:21:02;;;;;;;25.20;22.15;;;18.80;99.90;;;;;;5093202;28;20044;-73
2022/05/18 07:23:29;;;;;;;6.32;4.05;;;18.90;99.90;;;;;;5075912;28;20051;-72
2022/05/18 07:25:57;;;;;;;7.22;3.15;;;18.90;99.90;;;;;;5093086;28;20051;-72
2022/05/18 07:28:24;;;;;;;8.07;3.58;;;18.90;99.90;;;;;;5058642;28;20409;-71
2022/05/18 07:30:51;;;;;;;8.23;2.50;;;18.80;99.90;;;;;;5093114;28;20048;-72
2022/05/18 07:33:20;;;;;;;5.05;2.20;;;18.80;99.90;;;;;;5091983;28;20044;-71
2022/05/18 07:35:48;;;;;;;7.97;3.15;;;18.80;99.90;;;;;;5076064;28;20040;-72
2022/05/18 07:38:17;;;;;;;5.47;2.63;;;18.80;99.90;;;;;;5075025;28;20387;-70
2022/05/18 07:41:04;;;;;;;6.43;2.25;;;18.90;99.90;;;;;;5078084;28;20325;-69
2022/05/18 07:43:31;;;;;;;9.05;2.50;;;19.00;99.90;;;;;;5093123;28;20041;-71
2022/05/18 07:45:58;;;;;;;5.00;2.33;;;19.00;99.90;;;;;;5092793;28;20577;-71
2022/05/18 07:48:25;;;;;;;6.35;2.40;;;19.00;99.90;;;;;;5095380;28;20209;-72
2022/05/18 07:50:52;;;;;;;4.88;2.22;;;19.00;99.90;;;;;;5096305;28;20131;-73
2022/05/18 07:53:19;;;;;;;9.70;3.47;;;19.00;99.90;;;;;;5078627;28;20040;-69
2022/05/18 07:55:47;;;;;;;8.57;3.00;;;19.00;99.90;;;;;;5095296;28;20478;-70
2022/05/18 07:58:18;;;;;;;7.10;2.90;;;19.10;99.90;;;;;;5079389;28;20127;-72
2022/05/18 08:00:46;;;;;;;6.90;2.65;;;19.10;99.90;;;;;;5078025;28;20059;-70
2022/05/18 08:03:13;;;;;;;5.30;2.78;;;19.10;99.90;;;;;;5078832;28;20044;-76
2022/05/18 08:05:44;;;;;;;8.55;3.08;;;19.10;99.90;;;;;;5096322;28;20044;-72
2022/05/18 08:08:14;;;;;;;10.15;3.10;;;19.20;99.90;;;;;;5094901;28;20048;-65
2022/05/18 08:16:12;;;;;;;8.70;4.50;;;19.30;99.90;;;;;;5081098;28;20047;-69
2022/05/18 08:18:39;;;;;;;5.55;3.03;;;19.40;99.90;;;;;;5096092;28;20040;-68
2022/05/18 08:21:06;;;;;;;6.25;2.63;;;19.50;99.90;;;;;;5094598;28;20048;-67
2022/05/18 08:23:33;;;;;;;8.10;2.70;;;19.80;99.90;;;;;;5095064;28;20437;-68
2022/05/18 08:26:01;;;;;;;6.13;3.25;;;19.90;99.90;;;;;;5094403;28;20504;-68
2022/05/18 08:28:28;;;;;;;6.40;2.97;;;19.90;99.90;;;;;;5094578;28;20036;-68
2022/05/18 08:35:24;;;;;;;7.20;2.10;;;20.10;99.90;;;;;;5095727;28;20070;-77
2022/05/18 08:37:51;;;;;;;7.53;2.67;;;20.20;99.90;;;;;;5095616;28;20048;-71
2022/05/18 08:40:28;;;;;;;11.43;2.58;;;20.10;99.90;;;;;;5094126;28;20052;-71
2022/05/18 08:43:00;;;;;;;7.53;2.33;;;20.20;99.90;;;;;;5078333;28;20044;-72
2022/05/18 08:45:32;;;;;;;12.73;2.42;;;20.20;99.90;;;;;;5096571;28;20036;-72
2022/05/18 08:48:26;;;;;;;9.77;2.55;;;20.20;99.80;;;;;;5095216;28;20349;-72
2022/05/18 08:50:54;;;;;;;6.78;2.28;;;20.20;99.80;;;;;;5087066;28;20044;-72
2022/05/18 08:53:31;;;;;;;6.97;2.30;;;20.20;97.30;;;;;;5077923;28;20040;-72
2022/05/18 08:56:18;;;;;;;5.95;2.17;;;20.30;99.90;;;;;;5095539;28;20456;-72
2022/05/18 08:58:49;;;;;;;9.63;2.65;;;20.50;96.20;;;;;;5094682;28;20047;-72
2022/05/18 09:01:40;;;;;;;7.60;2.00;;;20.50;97.10;;;;;;5078515;28;20043;-72
2022/05/18 09:04:36;;;;;;;6.65;2.05;;;20.60;95.00;;;;;;5078067;28;20048;-72
2022/05/18 09:07:05;;;;;;;6.57;2.13;;;20.60;92.70;;;;;;5094060;28;20044;-72
2022/05/18 09:12:26;;;;;;;8.48;3.30;;;20.60;93.60;;;;;;5094913;28;20050;-71
2022/05/18 09:14:52;;;;;;;7.85;2.70;;;20.70;93.30;;;;;;5094987;28;20360;-71
2022/05/18 09:17:41;;;;;;;6.30;2.20;;;20.90;93.60;;;;;;5077081;28;20044;-71
2022/05/18 09:20:13;;;;;;;6.83;2.53;;;21.10;91.60;;;;;;5094597;28;20050;-72
2022/05/18 09:23:01;;;;;;;6.07;2.30;;;21.20;91.30;;;;;;5094996;28;20275;-71
2022/05/18 09:25:34;;;;;;;7.93;1.90;;;21.20;88.30;;;;;;5093490;28;20383;-71
2022/05/18 09:28:23;;;;;;;8.93;2.33;;;21.30;87.90;;;;;;5094989;28;20055;-71
2022/05/18 09:30:55;;;;;;;7.05;2.42;;;21.40;87.90;;;;;;5093577;28;20386;-72
2022/05/18 09:33:42;;;;;;;6.25;2.22;;;21.50;83.60;;;;;;5093232;28;20048;-72
2022/05/18 09:36:32;;;;;;;7.68;2.10;;;21.60;80.30;;;;;;5093764;28;20051;-72
2022/05/18 09:39:10;;;;;;;3.53;1.83;;;21.70;88.00;;;;;;5094256;28;20067;-72
2022/05/18 09:41:42;;;;;;;4.85;1.90;;;21.70;83.50;;;;;;5078059;28;20040;-72
2022/05/18 09:44:12;;;;;;;5.32;1.95;;;21.50;80.80;;;;;;5093806;28;20047;-72
2022/05/18 09:46:39;;;;;;;9.85;3.55;;;21.40;81.40;;;;;;5094937;28;20070;-72
2022/05/18 09:49:23;;;;;;;9.20;3.00;;;21.40;81.20;;;;;;5093400;28;20044;-72
2022/05/18 09:51:50;;;;;;;4.80;1.83;;;21.50;82.60;;;;;;5078106;28;20054;-71
2022/05/18 09:54:23;;;;;;;5.97;2.10;;;21.50;84.70;;;;;;5092953;28;20040;-72
2022/05/18 09:56:55;;;;;;;5.80;1.73;;;21.60;82.20;;;;;;5092928;28;20528;-72
2022/05/18 09:59:30;;;;;;;5.82;2.00;;;21.60;81.50;;;;;;5077488;28;20089;-72
2022/05/18 10:07:31;;;;;;;7.00;2.55;;;21.60;83.60;;;;;;5079857;28;20440;-72
2022/05/18 10:10:21;;;;;;;9.38;2.05;;;21.60;81.60;;;;;;5093382;28;20048;-72
2022/05/18 10:13:02;;;;;;;9.85;2.08;;;21.60;80.90;;;;;;5093530;28;20050;-71
2022/05/18 10:15:49;;;;;;;5.30;1.98;;;21.70;80.80;;;;;;5093797;28;20043;-72
2022/05/18 10:18:23;;;;;;;6.75;3.03;;;21.80;85.20;;;;;;5075691;28;20036;-72
2022/05/18 10:21:21;;;;;;;6.43;2.30;;;21.80;83.10;;;;;;5094687;28;20040;-72
2022/05/18 10:23:56;;;;;;;6.15;2.35;;;21.90;83.30;;;;;;5094205;28;20076;-72
2022/05/18 10:26:29;;;;;;;7.28;2.00;;;21.80;82.30;;;;;;5094110;28;20056;-72
2022/05/18 10:28:59;;;;;;;6.43;2.28;;;21.90;81.80;;;;;;5075865;28;20066;-71
2022/05/18 10:31:38;;;;;;;4.80;2.30;;;21.80;81.60;;;;;;5092598;28;20039;-72
2022/05/18 10:34:15;;;;;;;6.38;2.38;;;21.90;80.20;;;;;;5076430;28;20083;-72
2022/05/18 10:36:48;;;;;;;5.68;2.10;;;21.90;80.90;;;;;;5092231;28;20048;-72
2022/05/18 10:39:34;;;;;;;5.93;1.95;;;22.00;81.30;;;;;;5076822;28;20055;-72
2022/05/18 10:42:02;;;;;;;6.32;2.05;;;22.10;78.70;;;;;;5077072;28;20054;-72
2022/05/18 10:44:33;;;;;;;4.28;2.20;;;22.10;81.30;;;;;;5075572;28;20048;-72
2022/05/18 10:47:26;;;;;;;3.63;1.98;;;22.20;80.60;;;;;;5076392;28;20052;-72
2022/05/18 10:50:13;;;;;;;4.25;2.08;;;22.30;79.70;;;;;;5092945;28;20125;-72
2022/05/18 10:52:40;;;;;;;4.72;1.90;;;22.30;80.50;;;;;;5092162;28;20040;-72
2022/05/18 10:55:16;;;;;;;5.30;2.00;;;22.40;76.90;;;;;;5094328;28;20341;-71
2022/05/18 10:58:02;;;;;;;5.68;2.80;;;22.40;78.20;;;;;;5091919;28;20543;-67
2022/05/18 11:00:57;;;;;;;115.53;101.88;;;22.50;77.20;;;;;;5091820;28;20050;-74
2022/05/18 11:03:47;;;;;;;18.33;14.73;;;22.50;75.10;;;;;;5092839;28;20036;-75
2022/05/18 11:06:20;;;;;;;11.63;5.00;;;22.50;75.80;;;;;;5092496;28;20070;-79
2022/05/18 11:08:47;;;;;;;8.05;2.60;;;22.60;75.80;;;;;;5093061;28;20036;-72
2022/05/18 11:11:37;;;;;;;6.13;2.05;;;22.60;74.60;;;;;;5092194;28;20052;-72
2022/05/18 11:14:07;;;;;;;4.47;1.73;;;22.70;72.80;;;;;;5093809;28;20048;-66
2022/05/18 11:16:37;;;;;;;4.95;2.00;;;22.70;70.60;;;;;;5092965;28;20467;-66
2022/05/18 11:19:14;;;;;;;4.28;1.70;;;22.70;73.10;;;;;;5091634;28;20126;-67
2022/05/18 11:21:52;;;;;;;5.93;2.05;;;22.70;73.10;;;;;;5094616;28;20357;-67
2022/05/18 11:24:25;;;;;;;5.85;2.35;;;22.80;72.50;;;;;;5096870;28;20050;-68
2022/05/18 11:26:56;;;;;;;5.93;2.13;;;22.80;74.70;;;;;;5097297;28;20084;-67
2022/05/18 11:29:43;;;;;;;6.35;1.75;;;22.90;72.50;;;;;;5096171;28;20102;-67
2022/05/18 11:32:14;;;;;;;4.65;1.92;;;22.90;69.30;;;;;;5080289;28;20036;-68
2022/05/18 11:34:47;;;;;;;5.10;1.75;;;22.90;70.00;;;;;;5096369;28;20066;-68
2022/05/18 11:37:32;;;;;;;4.70;1.50;;;22.90;71.30;;;;;;5096814;28;20075;-72
2022/05/18 11:40:14;;;;;;;10.98;6.05;;;22.90;70.30;;;;;;5095481;28;20078;-73
2022/05/18 11:43:25;;;;;;;4.78;2.38;;;22.90;68.90;;;;;;5095760;28;20149;-73
2022/05/18 11:46:14;;;;;;;5.93;2.08;;;23.00;67.20;;;;;;5088759;28;20392;-73
2022/05/18 11:48:57;;;;;;;5.03;1.60;;;23.00;66.40;;;;;;5088717;28;20036;-72
2022/05/18 11:51:29;;;;;;;6.68;2.00;;;23.10;67.30;;;;;;5096422;28;20042;-72
2022/05/18 11:54:19;;;;;;;5.10;2.75;;;23.20;69.70;;;;;;5097600;28;20047;-72
2022/05/18 11:57:11;;;;;;;5.43;2.17;;;23.40;69.00;;;;;;5096405;28;20542;-72
2022/05/18 12:00:00;;;;;;;4.97;1.92;;;23.40;65.00;;;;;;5095100;28;20050;-71
2022/05/18 12:02:53;;;;;;;5.28;1.70;;;23.40;68.50;;;;;;5095244;28;20040;-73
2022/05/18 12:05:35;;;;;;;6.47;1.88;;;23.50;69.40;;;;;;5095017;28;20051;-72
2022/05/18 12:08:35;;;;;;;6.18;1.60;;;23.60;67.40;;;;;;5097232;28;20055;-71
2022/05/18 12:11:14;;;;;;;5.32;2.17;;;23.60;67.70;;;;;;5096977;28;20047;-72
2022/05/18 12:13:50;;;;;;;9.02;1.70;;;23.60;65.70;;;;;;5096072;28;20044;-73
2022/05/18 12:16:45;;;;;;;4.25;1.65;;;23.50;65.90;;;;;;5097059;28;20122;-73
2022/05/18 12:19:36;;;;;;;3.75;1.30;;;23.60;65.90;;;;;;5095523;28;20046;-73
2022/05/18 12:22:15;;;;;;;5.75;2.28;;;23.60;63.30;;;;;;5095032;28;20044;-73
2022/05/18 12:24:44;;;;;;;6.22;1.75;;;23.60;63.90;;;;;;5078524;28;20466;-73
2022/05/18 12:27:12;;;;;;;4.82;1.70;;;23.50;63.30;;;;;;5077972;28;20044;-72
2022/05/18 12:29:39;;;;;;;3.33;1.50;;;23.50;62.90;;;;;;5094801;28;20059;-73
2022/05/18 12:32:08;;;;;;;7.15;2.00;;;23.30;64.30;;;;;;5078865;28;20352;-73
2022/05/18 12:34:35;;;;;;;4.18;1.40;;;23.40;65.50;;;;;;5094068;28;20036;-72
2022/05/18 12:37:15;;;;;;;3.95;1.58;;;23.50;65.20;;;;;;5096547;28;20046;-74
2022/05/18 12:39:45;;;;;;;4.07;1.38;;;23.60;66.40;;;;;;5094375;28;20530;-75
2022/05/18 12:42:29;;;;;;;6.68;2.92;;;23.80;63.90;;;;;;5095342;28;20039;-76
2022/05/18 12:45:08;;;;;;;4.45;1.63;;;23.90;58.90;;;;;;5095550;28;20068;-68
2022/05/18 12:47:52;;;;;;;4.90;1.60;;;23.90;63.20;;;;;;5063042;28;20044;-73
2022/05/18 12:50:29;;;;;;;4.30;1.90;;;23.90;61.00;;;;;;5094276;28;20083;-72
2022/05/18 12:53:00;;;;;;;4.28;1.63;;;23.90;64.60;;;;;;5094244;28;20040;-72
2022/05/18 12:55:44;;;;;;;6.97;2.10;;;24.00;65.00;;;;;;5078945;28;20139;-72
2022/05/18 12:58:23;;;;;;;3.83;1.50;;;24.20;62.20;;;;;;5094943;28;20371;-72
2022/05/18 13:01:17;;;;;;;4.70;1.63;;;24.20;63.00;;;;;;5093994;28;20472;-71
2022/05/18 13:04:05;;;;;;;8.27;3.00;;;24.30;60.50;;;;;;5078093;28;20521;-72
2022/05/18 13:06:35;;;;;;;5.95;2.20;;;24.20;61.40;;;;;;5093891;28;20040;-73
2022/05/18 13:09:27;;;;;;;5.53;1.85;;;24.20;62.60;;;;;;5094938;28;20044;-72
2022/05/18 13:12:22;;;;;;;4.25;1.60;;;24.20;61.20;;;;;;5095709;28;20044;-73
2022/05/18 13:15:03;;;;;;;3.38;1.38;;;24.10;63.30;;;;;;5095663;28;20048;-66
2022/05/18 13:17:46;;;;;;;5.88;1.70;;;24.20;61.50;;;;;;5093461;28;20044;-67
2022/05/18 13:20:22;;;;;;;4.22;1.70;;;24.20;62.60;;;;;;5095425;28;20083;-67
2022/05/18 13:23:05;;;;;;;2.75;1.45;;;24.40;63.90;;;;;;5095771;28;20044;-67
2022/05/18 13:25:33;;;;;;;3.65;1.33;;;24.30;63.00;;;;;;5094614;28;20044;-67
2022/05/18 13:28:02;;;;;;;4.63;1.53;;;24.20;62.70;;;;;;5093351;28;20050;-67
2022/05/18 13:30:43;;;;;;;4.57;1.40;;;24.30;64.00;;;;;;5094868;28;20052;-67
2022/05/18 13:33:54;;;;;;;3.13;1.58;;;24.30;62.90;;;;;;5094080;28;20055;-67
2022/05/18 13:36:38;;;;;;;3.97;1.60;;;24.10;63.90;;;;;;5093256;28;20050;-67